.
WxDataArchive / Data Records for 2012-10-15
2012-10-14 October 2012 2012-10-16

Data Records for Monday, 15 October 2012

Time	Temp	Chill	HIndex	Humid	Dewpt	 Wind 	HiWind	WindDir	Rain 	Barom 
-----	----	-----	------	-----	-----	------	------	-------	-----	----- 
00:00	51.6	51.6	51.6	86	47.5	3	6	270	0.00	29.690 
00:05	51.6	51.6	51.6	86	47.5	3	6	270	0.00	29.690 
00:10	51.6	51.6	51.6	85	47.2	3	6	270	0.00	29.690 
00:15	51.6	51.6	51.6	85	47.2	2	6	248	0.00	29.706 
00:20	51.6	51.6	51.6	85	47.2	3	6	270	0.00	29.706 
00:25	51.6	51.6	51.6	85	47.2	2	5	270	0.00	29.706 
00:30	51.6	51.6	51.6	85	47.2	3	10	270	0.00	29.711 
00:35	51.6	51.6	51.6	84	46.9	3	10	270	0.00	29.711 
00:40	51.6	51.6	51.6	85	47.2	3	5	248	0.00	29.711 
00:45	51.6	51.6	51.6	85	47.2	2	6	292	0.00	29.710 
00:50	51.6	51.6	51.6	85	47.2	3	6	270	0.00	29.710 
00:55	51.6	51.6	51.6	85	47.2	2	4	270	0.00	29.710 
01:00	51.6	51.6	51.6	85	47.2	2	5	270	0.00	29.708 
01:05	51.4	51.4	51.4	86	47.4	2	5	270	0.00	29.708 
01:10	51.4	51.4	51.4	86	47.4	3	6	248	0.00	29.708 
01:15	51.4	51.4	51.4	86	47.4	3	6	270	0.00	29.710 
01:20	51.4	51.4	51.4	86	47.4	2	5	270	0.00	29.710 
01:25	51.4	51.4	51.4	87	47.7	2	7	248	0.00	29.710 
01:30	51.3	51.3	51.3	87	47.6	3	5	270	0.00	29.720 
01:35	51.3	51.3	51.3	88	47.9	2	4	270	0.00	29.720 
01:40	51.1	51.1	51.1	88	47.7	2	5	270	0.00	29.720 
01:45	51.1	51.1	51.1	88	47.7	1	3	270	0.00	29.720 
01:50	51.1	51.1	51.1	88	47.7	2	5	270	0.00	29.720 
01:55	51.1	51.1	51.1	88	47.7	3	7	270	0.00	29.720 
02:00	51.1	51.1	51.1	88	47.7	3	7	270	0.00	29.720 
02:05	51.1	51.1	51.1	87	47.4	3	5	270	0.00	29.720 
02:10	51.1	51.1	51.1	88	47.7	1	4	270	0.00	29.720 
02:15	51.1	51.1	51.1	88	47.7	1	5	248	0.00	29.728 
02:20	51.0	51.0	51.0	88	47.6	2	5	248	0.00	29.728 
02:25	51.0	51.0	51.0	88	47.6	2	5	248	0.00	29.728 
02:30	50.8	50.8	50.8	88	47.4	2	4	270	0.00	29.733 
02:35	50.7	50.7	50.7	88	47.3	2	4	292	0.00	29.733 
02:40	50.7	50.7	50.7	89	47.6	2	5	248	0.00	29.733 
02:45	50.5	50.5	50.5	89	47.4	2	6	270	0.00	29.732 
02:50	50.5	50.5	50.5	89	47.4	2	5	270	0.00	29.732 
02:55	50.5	50.5	50.5	88	47.1	2	5	270	0.00	29.732 
03:00	50.5	50.5	50.5	88	47.1	2	5	270	0.00	29.732 
03:05	50.5	50.5	50.5	88	47.1	1	4	270	0.00	29.732 
03:10	50.5	50.5	50.5	88	47.1	2	5	292	0.00	29.732 
03:15	50.5	50.5	50.5	87	46.8	2	4	292	0.00	29.730 
03:20	50.4	50.4	50.4	87	46.7	2	5	270	0.00	29.730 
03:25	50.5	50.5	50.5	87	46.8	2	4	270	0.00	29.730 
03:30	50.4	50.4	50.4	87	46.7	2	5	248	0.00	29.729 
03:35	50.4	50.4	50.4	87	46.7	2	5	248	0.00	29.729 
03:40	50.2	50.2	50.2	87	46.5	1	5	292	0.00	29.729 
03:45	50.1	50.1	50.1	87	46.4	2	4	292	0.00	29.732 
03:50	50.1	50.1	50.1	87	46.4	2	5	292	0.00	29.732 
03:55	50.1	50.1	50.1	87	46.4	1	4	292	0.00	29.732 
04:00	50.1	50.1	50.1	87	46.4	2	4	270	0.00	29.733 
04:05	49.9	49.9	49.9	87	46.2	1	4	248	0.00	29.733 
04:10	49.9	49.9	49.9	87	46.2	2	5	270	0.00	29.733 
04:15	49.9	49.9	49.9	87	46.2	1	4	248	0.00	29.733 
04:20	49.9	49.9	49.9	87	46.2	2	4	248	0.00	29.733 
04:25	49.8	49.8	49.8	87	46.1	1	5	248	0.00	29.733 
04:30	49.8	49.8	49.8	87	46.1	1	3	315	0.00	29.735 
04:35	49.8	49.8	49.8	87	46.1	3	5	248	0.00	29.735 
04:40	49.8	49.8	49.8	86	45.8	2	5	292	0.00	29.735 
04:45	49.9	49.9	49.9	86	45.9	1	4	248	0.00	29.734 
04:50	49.9	49.9	49.9	86	45.9	1	3	248	0.00	29.734 
04:55	49.9	49.9	49.9	86	45.9	1	4	248	0.00	29.734 
05:00	49.9	49.9	49.9	86	45.9	1	4	248	0.00	29.735 
05:05	50.1	50.1	50.1	85	45.8	1	4	248	0.00	29.735 
05:10	50.1	50.1	50.1	85	45.8	1	3	248	0.00	29.735 
05:15	50.1	50.1	50.1	85	45.8	1	4	248	0.00	29.739 
05:20	50.1	50.1	50.1	86	46.1	0	2	248	0.00	29.739 
05:25	50.1	50.1	50.1	86	46.1	1	4	248	0.00	29.739 
05:30	50.1	50.1	50.1	86	46.1	1	3	248	0.00	29.742 
05:35	50.1	50.1	50.1	86	46.1	1	3	248	0.00	29.742 
05:40	49.9	49.9	49.9	86	45.9	1	3	248	0.00	29.742 
05:45	49.9	49.9	49.9	87	46.2	1	3	248	0.00	29.750 
05:50	49.8	49.8	49.8	87	46.1	1	4	248	0.00	29.750 
05:55	49.8	49.8	49.8	87	46.1	0	3	248	0.00	29.750 
06:00	49.6	49.6	49.6	88	46.2	0	2	248	0.00	29.752 
06:05	49.6	49.6	49.6	88	46.2	1	2	248	0.00	29.752 
06:10	49.6	49.6	49.6	88	46.2	0	2	248	0.00	29.752 
06:15	49.6	49.6	49.6	88	46.2	1	4	248	0.00	29.755 
06:20	49.6	49.6	49.6	88	46.2	1	2	248	0.00	29.755 
06:25	49.6	49.6	49.6	88	46.2	1	3	248	0.00	29.755 
06:30	49.6	49.6	49.6	88	46.2	1	3	248	0.00	29.762 
06:35	49.5	49.5	49.5	88	46.1	1	2	248	0.00	29.762 
06:40	49.5	49.5	49.5	88	46.1	1	2	248	0.00	29.762 
06:45	49.5	49.5	49.5	88	46.1	1	2	248	0.00	29.767 
06:50	49.4	49.4	49.4	89	46.3	0	2	248	0.00	29.767 
06:55	49.4	49.4	49.4	89	46.3	1	3	248	0.00	29.767 
07:00	49.4	49.4	49.4	89	46.3	1	4	248	0.00	29.769 
07:05	49.4	49.4	49.4	89	46.3	0	3	248	0.00	29.769 
07:10	49.4	49.4	49.4	89	46.3	1	2	248	0.00	29.769 
07:15	49.4	49.4	49.4	89	46.3	0	2	248	0.00	29.773 
07:20	49.4	49.4	49.4	89	46.3	0	1	248	0.00	29.773 
07:25	49.4	49.4	49.4	90	46.6	0	2	248	0.00	29.773 
07:30	49.2	49.2	49.2	90	46.4	0	2	248	0.00	29.774 
07:35	49.2	49.2	49.2	90	46.4	0	2	248	0.00	29.774 
07:40	49.1	49.1	49.1	91	46.6	1	3	248	0.00	29.774 
07:45	48.9	48.9	48.9	91	46.4	1	3	248	0.00	29.775 
07:50	48.9	48.9	48.9	91	46.4	1	2	248	0.00	29.775 
07:55	48.8	48.8	48.8	91	46.3	1	4	248	0.00	29.775 
08:00	48.8	48.8	48.8	91	46.3	0	2	248	0.00	29.779 
08:05	48.8	48.8	48.8	91	46.3	1	3	248	0.00	29.779 
08:10	48.8	48.8	48.8	91	46.3	1	2	248	0.00	29.779 
08:15	48.8	48.8	48.8	91	46.3	1	3	248	0.00	29.794 
08:20	48.6	48.6	48.6	92	46.4	1	3	248	0.00	29.794 
08:25	48.6	48.6	48.6	92	46.4	1	3	248	0.00	29.794 
08:30	48.6	48.6	48.6	92	46.4	1	4	248	0.00	29.796 
08:35	48.5	48.5	48.5	92	46.3	1	3	248	0.00	29.796 
08:40	48.5	48.5	48.5	92	46.3	2	3	248	0.00	29.796 
08:45	48.3	48.3	48.3	92	46.1	1	3	248	0.00	29.809 
08:50	48.3	48.3	48.3	92	46.1	1	4	248	0.00	29.809 
08:55	48.3	48.3	48.3	92	46.1	1	3	248	0.00	29.809 
09:00	48.3	48.3	48.3	92	46.1	1	3	248	0.00	29.811 
09:05	48.3	48.3	48.3	93	46.4	1	3	248	0.00	29.811 
09:10	48.3	48.3	48.3	93	46.4	1	2	248	0.00	29.811 
09:15	48.2	48.2	48.2	93	46.3	1	3	248	0.00	29.816 
09:20	48.2	48.2	48.2	93	46.3	1	4	248	0.00	29.816 
09:25	48.3	48.3	48.3	93	46.4	0	2	248	0.00	29.816 
09:30	48.3	48.3	48.3	93	46.4	1	3	248	0.00	29.818 
09:35	48.3	48.3	48.3	93	46.4	0	1	248	0.00	29.818 
09:40	48.3	48.3	48.3	93	46.4	0	3	248	0.01	29.818 
09:45	48.3	48.3	48.3	93	46.4	1	3	248	0.00	29.825 
09:50	48.3	48.3	48.3	93	46.4	1	2	248	0.00	29.825 
09:55	48.3	48.3	48.3	93	46.4	1	4	248	0.00	29.825 
10:00	48.5	48.5	48.5	93	46.6	1	4	248	0.00	29.828 
10:05	48.5	48.5	48.5	94	46.9	2	4	248	0.00	29.828 
10:10	48.8	48.8	48.8	94	47.1	1	3	248	0.00	29.828 
10:15	48.9	48.9	48.9	94	47.2	2	4	248	0.00	29.833 
10:20	48.9	48.9	48.9	93	47.0	2	4	248	0.00	29.833 
10:25	49.2	49.2	49.2	93	47.3	1	3	248	0.00	29.833 
10:30	49.2	49.2	49.2	93	47.3	1	3	248	0.00	29.835 
10:35	49.2	49.2	49.2	93	47.3	1	4	248	0.00	29.835 
10:40	49.1	49.1	49.1	92	46.9	1	4	248	0.00	29.835 
10:45	49.2	49.2	49.2	92	47.0	2	3	248	0.00	29.844 
10:50	49.4	49.4	49.4	92	47.2	1	3	292	0.00	29.844 
10:55	49.4	49.4	49.4	91	46.9	2	5	292	0.00	29.844 
11:00	49.5	49.5	49.5	90	46.7	2	4	292	0.00	29.845 
11:05	49.6	49.6	49.6	89	46.5	2	4	315	0.00	29.845 
11:10	49.8	49.8	49.8	89	46.7	2	4	292	0.00	29.845 
11:15	49.9	49.9	49.9	88	46.5	3	5	270	0.00	29.848 
11:20	50.1	50.1	50.1	87	46.4	2	4	270	0.00	29.848 
11:25	50.5	50.5	50.5	86	46.5	2	5	270	0.00	29.848 
11:30	50.5	50.5	50.5	85	46.2	2	4	270	0.00	29.850 
11:35	50.8	50.8	50.8	84	46.1	2	4	270	0.00	29.850 
11:40	51.1	51.1	51.1	83	46.1	2	4	270	0.00	29.850 
11:45	51.3	51.3	51.3	81	45.7	3	5	270	0.00	29.853 
11:50	51.0	51.0	51.0	80	45.0	3	5	270	0.00	29.853 
11:55	50.8	50.8	50.8	79	44.5	2	7	270	0.00	29.853 
12:00	50.7	50.7	50.7	79	44.4	1	4	270	0.00	29.859 
12:05	50.8	50.8	50.8	79	44.5	1	4	292	0.00	29.859 
12:10	51.0	51.0	51.0	78	44.4	3	5	270	0.00	29.859 
12:15	51.1	51.1	51.1	78	44.5	2	5	315	0.00	29.861 
12:20	51.6	51.6	51.6	77	44.6	1	3	270	0.00	29.861 
12:25	51.9	51.9	51.9	77	44.9	2	4	292	0.00	29.861 
12:30	51.6	51.6	51.6	75	43.9	3	5	270	0.00	29.863 
12:35	51.4	51.4	51.4	75	43.7	3	7	270	0.00	29.863 
12:40	51.3	51.3	51.3	75	43.6	2	5	315	0.00	29.863 
12:45	51.3	51.3	51.3	76	44.0	2	5	292	0.00	29.874 
12:50	51.3	51.3	51.3	75	43.6	2	4	315	0.00	29.874 
12:55	51.4	51.4	51.4	76	44.1	1	6	338	0.00	29.874 
13:00	51.3	51.3	51.3	75	43.6	2	5	270	0.00	29.876 
13:05	51.3	51.3	51.3	74	43.3	3	5	292	0.00	29.876 
13:10	51.3	51.3	51.3	74	43.3	2	4	315	0.00	29.876 
13:15	51.4	51.4	51.4	74	43.4	1	5	248	0.00	29.876 
13:20	51.4	51.4	51.4	73	43.0	1	4	315	0.00	29.876 
13:25	51.6	51.6	51.6	72	42.9	2	6	270	0.00	29.876 
13:30	51.6	51.6	51.6	71	42.5	2	5	315	0.00	29.878 
13:35	51.7	51.7	51.7	71	42.6	2	5	315	0.00	29.878 
13:40	51.7	51.7	51.7	71	42.6	1	5	315	0.00	29.878 
13:45	51.6	51.6	51.6	71	42.5	2	5	315	0.00	29.881 
13:50	51.4	51.4	51.4	73	43.0	1	5	270	0.00	29.881 
13:55	51.3	51.3	51.3	73	42.9	1	3	270	0.00	29.881 
14:00	51.1	51.1	51.1	74	43.1	2	4	270	0.00	29.883 
14:05	50.8	50.8	50.8	74	42.8	2	4	270	0.00	29.883 
14:10	50.5	50.5	50.5	74	42.5	2	4	292	0.00	29.883 
14:15	50.2	50.2	50.2	74	42.2	3	4	315	0.00	29.888 
14:20	50.1	50.1	50.1	75	42.5	2	4	292	0.00	29.888 
14:25	49.9	49.9	49.9	75	42.3	2	4	315	0.00	29.888 
14:30	49.9	49.9	49.9	75	42.3	2	4	292	0.00	29.887 
14:35	49.9	49.9	49.9	76	42.6	2	4	315	0.00	29.887 
14:40	50.1	50.1	50.1	76	42.8	2	4	315	0.00	29.887 
14:45	50.1	50.1	50.1	76	42.8	1	5	248	0.00	29.893 
14:50	50.1	50.1	50.1	76	42.8	1	4	292	0.00	29.893 
14:55	50.1	50.1	50.1	76	42.8	0	1	292	0.00	29.893 
15:00	50.1	50.1	50.1	75	42.5	1	3	292	0.00	29.893 
15:05	50.2	50.2	50.2	74	42.2	1	3	315	0.00	29.893 
15:10	50.2	50.2	50.2	73	41.9	1	4	270	0.00	29.893 
15:15	50.4	50.4	50.4	73	42.1	1	4	292	0.00	29.896 
15:20	50.4	50.4	50.4	72	41.7	3	6	270	0.00	29.896 
15:25	50.4	50.4	50.4	72	41.7	2	4	270	0.00	29.896 
15:30	50.4	50.4	50.4	73	42.1	1	4	315	0.00	29.896 
15:35	50.5	50.5	50.5	72	41.8	1	3	315	0.00	29.896 
15:40	50.7	50.7	50.7	72	42.0	2	4	270	0.00	29.896 
15:45	50.8	50.8	50.8	71	41.7	2	5	270	0.00	29.897 
15:50	50.8	50.8	50.8	71	41.7	1	3	315	0.00	29.897 
15:55	50.8	50.8	50.8	70	41.4	2	5	292	0.00	29.897 
16:00	50.8	50.8	50.8	70	41.4	1	4	270	0.00	29.898 
16:05	50.8	50.8	50.8	70	41.4	1	4	270	0.00	29.898 
16:10	50.8	50.8	50.8	69	41.0	2	4	270	0.00	29.898 
16:15	50.8	50.8	50.8	69	41.0	2	3	270	0.00	29.906 
16:20	50.8	50.8	50.8	69	41.0	2	5	270	0.00	29.906 
16:25	50.8	50.8	50.8	70	41.4	1	3	270	0.00	29.906 
16:30	50.8	50.8	50.8	70	41.4	1	4	270	0.00	29.909 
16:35	50.8	50.8	50.8	70	41.4	1	4	338	0.00	29.909 
16:40	50.8	50.8	50.8	69	41.0	2	5	270	0.00	29.909 
16:45	50.7	50.7	50.7	69	40.9	2	4	270	0.00	29.911 
16:50	50.7	50.7	50.7	69	40.9	2	5	315	0.00	29.911 
16:55	50.7	50.7	50.7	69	40.9	1	5	270	0.00	29.911 
17:00	50.7	50.7	50.7	70	41.3	1	4	270	0.00	29.908 
17:05	50.7	50.7	50.7	70	41.3	2	4	315	0.00	29.908 
17:10	50.7	50.7	50.7	70	41.3	2	6	315	0.00	29.908 
17:15	50.7	50.7	50.7	70	41.3	2	4	315	0.00	29.911 
17:20	50.5	50.5	50.5	70	41.1	2	4	292	0.00	29.911 
17:25	50.5	50.5	50.5	71	41.5	2	5	292	0.00	29.911 
17:30	50.5	50.5	50.5	71	41.5	2	4	270	0.00	29.913 
17:35	50.5	50.5	50.5	71	41.5	1	3	270	0.00	29.913 
17:40	50.7	50.7	50.7	71	41.6	1	3	270	0.00	29.913 
17:45	50.8	50.8	50.8	71	41.7	0	2	270	0.00	29.912 
17:50	50.8	50.8	50.8	69	41.0	1	3	270	0.00	29.912 
17:55	50.7	50.7	50.7	68	40.5	2	5	270	0.00	29.912 
18:00	50.7	50.7	50.7	69	40.9	1	3	292	0.00	29.925 
18:05	50.8	50.8	50.8	69	41.0	1	3	292	0.00	29.925 
18:10	50.8	50.8	50.8	68	40.6	1	4	292	0.00	29.925 
18:15	50.8	50.8	50.8	68	40.6	1	3	292	0.00	29.927 
18:20	50.8	50.8	50.8	67	40.2	2	5	292	0.00	29.927 
18:25	50.8	50.8	50.8	66	39.9	2	5	292	0.00	29.927 
18:30	50.7	50.7	50.7	66	39.8	2	5	270	0.00	29.928 
18:35	50.5	50.5	50.5	66	39.6	2	6	270	0.00	29.928 
18:40	50.4	50.4	50.4	67	39.9	1	3	270	0.00	29.928 
18:45	50.4	50.4	50.4	68	40.2	1	3	270	0.00	29.932 
18:50	50.2	50.2	50.2	67	39.7	1	3	315	0.00	29.932 
18:55	50.2	50.2	50.2	68	40.1	0	2	315	0.00	29.932 
19:00	49.9	49.9	49.9	68	39.8	1	3	315	0.00	29.928 
19:05	49.8	49.8	49.8	69	40.0	0	1	315	0.00	29.928 
19:10	49.5	49.5	49.5	69	39.8	0	2	315	0.00	29.928 
19:15	49.4	49.4	49.4	69	39.7	0	2	315	0.00	29.930 
19:20	49.4	49.4	49.4	70	40.0	0	1	315	0.00	29.930 
19:25	49.2	49.2	49.2	70	39.8	0	2	315	0.00	29.930 
19:30	49.2	49.2	49.2	70	39.8	0	2	315	0.00	29.938 
19:35	49.2	49.2	49.2	70	39.8	0	1	315	0.00	29.938 
19:40	49.2	49.2	49.2	70	39.8	0	1	315	0.00	29.938 
19:45	49.2	49.2	49.2	70	39.8	0	1	315	0.00	29.937 
19:50	49.2	49.2	49.2	70	39.8	0	0	---	0.00	29.937 
19:55	49.2	49.2	49.2	70	39.8	0	1	315	0.00	29.937 
20:00	49.4	49.4	49.4	70	40.0	0	1	315	0.00	29.943 
20:05	49.4	49.4	49.4	69	39.7	0	1	315	0.00	29.943 
20:10	49.4	49.4	49.4	69	39.7	0	2	315	0.00	29.943 
20:15	49.4	49.4	49.4	69	39.7	0	2	315	0.00	29.947 
20:20	49.4	49.4	49.4	69	39.7	0	2	315	0.00	29.947 
20:25	49.4	49.4	49.4	69	39.7	0	1	315	0.00	29.947 
20:30	49.4	49.4	49.4	68	39.3	0	1	315	0.00	29.950 
20:35	49.4	49.4	49.4	69	39.7	0	1	315	0.00	29.950 
20:40	49.4	49.4	49.4	69	39.7	0	1	315	0.00	29.950 
20:45	49.2	49.2	49.2	68	39.1	0	2	315	0.00	29.958 
20:50	49.1	49.1	49.1	68	39.0	0	2	315	0.00	29.958 
20:55	48.8	48.8	48.8	69	39.1	0	1	315	0.00	29.958 
21:00	48.5	48.5	48.5	69	38.8	0	0	---	0.00	29.959 
21:05	48.2	48.2	48.2	69	38.5	0	1	315	0.00	29.959 
21:10	47.9	47.9	47.9	70	38.6	0	1	315	0.00	29.959 
21:15	47.6	47.6	47.6	70	38.3	0	0	---	0.00	29.962 
21:20	47.3	47.3	47.3	71	38.4	0	0	---	0.00	29.962 
21:25	47.0	47.0	47.0	72	38.4	0	0	---	0.00	29.962 
21:30	46.7	46.7	46.7	72	38.2	0	0	---	0.00	29.963 
21:35	46.4	46.4	46.4	73	38.2	0	0	---	0.00	29.963 
21:40	46.0	46.0	46.0	74	38.2	0	0	---	0.00	29.963 
21:45	45.7	45.7	45.7	75	38.2	0	0	---	0.00	29.967 
21:50	45.5	45.5	45.5	76	38.4	0	0	---	0.00	29.967 
21:55	45.4	45.4	45.4	76	38.3	0	0	---	0.00	29.967 
22:00	45.1	45.1	45.1	77	38.3	0	0	---	0.00	29.973 
22:05	44.9	44.9	44.9	77	38.1	0	0	---	0.00	29.973 
22:10	44.6	44.6	44.6	77	37.8	0	0	---	0.00	29.973 
22:15	44.3	44.3	44.3	78	37.9	0	0	---	0.00	29.970 
22:20	43.9	43.9	43.9	78	37.5	0	0	---	0.00	29.970 
22:25	43.6	43.6	43.6	78	37.2	0	0	---	0.00	29.970 
22:30	43.3	43.3	43.3	79	37.2	0	0	---	0.00	29.966 
22:35	42.9	42.9	42.9	79	36.8	0	0	---	0.00	29.966 
22:40	42.6	42.6	42.6	80	36.9	0	0	---	0.00	29.966 
22:45	42.2	42.2	42.2	81	36.8	0	0	---	0.00	29.970 
22:50	41.8	41.8	41.8	83	37.0	0	0	---	0.00	29.970 
22:55	41.5	41.5	41.5	84	37.0	0	0	---	0.00	29.970 
23:00	41.2	41.2	41.2	84	36.7	0	0	---	0.00	29.972 
23:05	41.1	41.1	41.1	85	36.9	0	0	---	0.00	29.972 
23:10	40.8	40.8	40.8	85	36.6	0	0	---	0.00	29.972 
23:15	40.6	40.6	40.6	86	36.7	0	0	---	0.00	29.971 
23:20	40.5	40.5	40.5	86	36.6	0	0	---	0.00	29.971 
23:25	40.3	40.3	40.3	87	36.7	0	0	---	0.00	29.971 
23:30	40.2	40.2	40.2	87	36.6	0	0	---	0.00	29.979 
23:35	40.2	40.2	40.2	88	36.9	0	0	---	0.00	29.979 
23:40	40.1	40.1	40.1	88	36.8	0	0	---	0.00	29.979 
23:45	39.9	39.9	39.9	88	36.6	0	0	---	0.00	29.980 
23:50	39.8	39.8	39.8	88	36.5	0	0	---	0.00	29.980 
23:55	39.6	39.6	39.6	88	36.3	0	0	---	0.00	29.980 

CoCoRaHS
IN-AL-39
A2 Web Hosting
Creative Commons License
GoDaddy
search engine by freefind advanced

loaded 2018-11-16 01:13:33 • last modified 2010-11-18 10:43:29
Privacy PolicyDisclaimer
• wx.awcolley.com is powered by PmWiki v.2002016 •
• all content (unless otherwise noted) © 2018 A W Colley